createdAt,value
2023-05-10T00:07:49.334Z,99565.28
2023-05-10T00:17:53.048Z,99579.50
2023-05-10T00:27:58.275Z,99587.88
2023-05-10T00:38:01.943Z,99588.59
2023-05-10T00:48:07.814Z,99587.53
2023-05-10T00:58:11.481Z,99598.66
2023-05-10T01:08:16.699Z,99599.22
2023-05-10T01:18:22.749Z,99612.72
2023-05-10T01:29:17.245Z,99619.38
2023-05-10T01:39:28.040Z,99629.53
2023-05-10T01:49:37.116Z,99632.75
2023-05-10T01:59:45.304Z,99653.75
2023-05-10T02:09:51.898Z,99658.88
2023-05-10T02:19:58.535Z,99664.03
2023-05-10T02:30:02.840Z,99666.56
2023-05-10T02:40:09.824Z,99673.13
2023-05-10T02:50:13.671Z,99678.91
2023-05-10T03:00:19.253Z,99675.50
2023-05-10T03:10:29.415Z,99678.16
2023-05-10T03:20:42.594Z,99698.19
2023-05-10T03:30:47.777Z,99700.75
2023-05-10T03:40:52.718Z,99706.69
2023-05-10T03:50:56.322Z,99715.00
2023-05-10T04:01:01.305Z,99726.03
2023-05-10T04:11:09.178Z,99717.75
2023-05-10T04:21:17.227Z,99719.50
2023-05-10T04:31:21.107Z,99720.56
2023-05-10T04:41:26.224Z,99732.72
2023-05-10T04:51:32.258Z,99747.28
2023-05-10T05:01:37.327Z,99743.47
2023-05-10T05:11:41.379Z,99754.09
2023-05-10T05:21:46.364Z,99761.63
2023-05-10T05:31:50.143Z,99768.28
2023-05-10T05:41:55.163Z,99767.22
2023-05-10T05:52:02.034Z,99771.72
2023-05-10T06:02:09.912Z,99784.50
2023-05-10T06:12:13.716Z,99790.84
2023-05-10T06:22:18.982Z,99792.50
2023-05-10T06:32:23.080Z,99812.25
2023-05-10T06:42:28.337Z,99817.41
2023-05-10T06:52:31.998Z,99813.72
2023-05-10T07:02:37.071Z,99818.38
2023-05-10T07:12:40.849Z,99821.00
2023-05-10T07:22:45.910Z,99835.97
2023-05-10T07:32:49.766Z,99833.25
2023-05-10T07:42:54.854Z,99847.66
2023-05-10T07:52:58.944Z,99843.22
2023-05-10T08:03:04.118Z,99860.13
2023-05-10T08:13:07.859Z,99851.88
2023-05-10T08:23:14.198Z,99852.19
2023-05-10T08:33:18.014Z,99850.78
2023-05-10T08:43:23.081Z,99856.13
2023-05-10T08:53:28.987Z,99861.38
2023-05-10T09:03:34.353Z,99857.09
2023-05-10T09:13:38.626Z,99868.84
2023-05-10T09:23:48.646Z,99874.59
2023-05-10T09:33:53.712Z,99883.16
2023-05-10T09:43:58.999Z,99888.56
2023-05-10T09:54:13.932Z,99878.38
2023-05-10T10:04:21.433Z,99894.47
2023-05-10T10:14:25.815Z,99892.84
2023-05-10T10:24:30.891Z,99892.19
2023-05-10T10:34:35.148Z,99894.41
2023-05-10T10:44:42.560Z,99915.50
2023-05-10T10:54:53.190Z,99904.91
2023-05-10T11:04:58.213Z,99911.03
2023-05-10T11:15:01.991Z,99891.34
2023-05-10T11:25:09.067Z,99895.44
2023-05-10T11:35:14.474Z,99915.94
2023-05-10T11:45:19.829Z,99903.19
2023-05-10T11:55:25.142Z,99906.72
2023-05-10T12:05:34.397Z,99924.63
2023-05-10T12:15:38.477Z,99946.28
2023-05-10T12:25:43.715Z,99949.47
2023-05-10T12:35:49.562Z,99953.06
2023-05-10T12:45:54.588Z,99942.34
2023-05-10T12:55:58.574Z,99944.38
2023-05-10T13:06:03.830Z,99927.28
2023-05-10T13:16:08.677Z,99923.88
2023-05-10T13:26:14.184Z,99921.28
2023-05-10T13:36:17.921Z,99912.72
2023-05-10T13:46:22.942Z,99906.75
2023-05-10T13:56:26.711Z,99905.66
2023-05-10T14:06:31.672Z,99891.88
2023-05-10T14:16:35.508Z,99893.56
2023-05-10T14:26:40.533Z,99870.28
2023-05-10T14:36:44.202Z,99880.66
2023-05-10T14:46:49.311Z,99877.16
2023-05-10T14:56:52.873Z,99870.19
2023-05-10T15:07:00.120Z,99859.94
2023-05-10T15:17:04.011Z,99852.09
2023-05-10T15:27:09.671Z,99863.22
2023-05-10T15:37:13.608Z,99868.50
2023-05-10T15:47:18.764Z,99880.28
2023-05-10T15:57:22.523Z,99889.41
2023-05-10T16:07:27.677Z,99889.59
2023-05-10T16:17:31.563Z,99906.75
2023-05-10T16:27:37.106Z,99915.28
2023-05-10T16:37:40.801Z,99914.41
2023-05-10T16:47:46.173Z,99925.47
2023-05-10T16:57:50.486Z,99929.66
2023-05-10T17:07:55.976Z,99927.09
2023-05-10T17:17:59.692Z,99928.03
2023-05-10T17:28:04.806Z,99939.03
2023-05-10T17:38:08.866Z,99948.44
2023-05-10T17:48:13.910Z,99948.38
2023-05-10T17:58:17.697Z,99953.25
2023-05-10T18:08:26.694Z,99966.69
2023-05-10T18:18:30.366Z,99980.97
2023-05-10T18:28:35.601Z,99984.25
2023-05-10T18:38:40.145Z,99988.25
2023-05-10T18:48:45.097Z,99989.66
2023-05-10T18:58:48.708Z,99989.34
2023-05-10T19:08:53.770Z,99992.97
2023-05-10T19:18:57.873Z,100012.59
2023-05-10T19:29:03.533Z,100021.19
2023-05-10T19:39:07.855Z,100038.00
2023-05-10T19:49:12.954Z,100040.38
2023-05-10T19:59:16.714Z,100061.09
2023-05-10T20:09:21.644Z,100066.91
2023-05-10T20:19:25.983Z,100069.97
2023-05-10T20:29:32.415Z,100074.91
2023-05-10T20:39:36.063Z,100084.16
2023-05-10T20:49:41.274Z,100076.13
2023-05-10T20:59:44.947Z,100075.56
2023-05-10T21:09:49.981Z,100071.28
2023-05-10T21:19:53.837Z,100070.91
2023-05-10T21:29:59.110Z,100072.47
2023-05-10T21:40:03.401Z,100076.44
2023-05-10T21:50:10.402Z,100077.16
2023-05-10T22:00:16.332Z,100075.59
2023-05-10T22:10:21.846Z,100077.34
2023-05-10T22:20:25.526Z,100073.31
2023-05-10T22:30:32.785Z,100077.47
2023-05-10T22:40:36.755Z,100083.41
2023-05-10T22:50:41.843Z,100090.75
2023-05-10T23:00:45.778Z,100095.13
2023-05-10T23:10:51.058Z,100098.53
2023-05-10T23:20:56.206Z,100105.16
2023-05-10T23:31:01.475Z,100110.19
2023-05-10T23:41:05.848Z,100101.53
2023-05-10T23:51:10.844Z,100103.69
